createdAt,value
2022-12-29T00:02:31.993Z,98727.28
2022-12-29T00:07:33.781Z,98729.66
2022-12-29T00:12:53.913Z,98726.22
2022-12-29T00:17:55.529Z,98724.44
2022-12-29T00:23:15.609Z,98721.47
2022-12-29T00:28:35.837Z,98729.69
2022-12-29T00:33:56.254Z,98727.94
2022-12-29T00:39:20.762Z,98722.69
2022-12-29T00:44:22.438Z,98719.16
2022-12-29T00:49:33.160Z,98720.91
2022-12-29T00:54:37.356Z,98732.06
2022-12-29T00:59:40.696Z,98731.56
2022-12-29T01:04:42.337Z,98745.56
2022-12-29T01:10:02.539Z,98735.19
2022-12-29T01:15:04.519Z,98737.00
2022-12-29T01:20:07.154Z,98733.50
2022-12-29T01:25:09.030Z,98721.38
2022-12-29T01:30:11.036Z,98718.06
2022-12-29T01:35:12.666Z,98718.91
2022-12-29T01:40:14.387Z,98723.25
2022-12-29T01:45:18.308Z,98707.44
2022-12-29T01:50:29.431Z,98696.28
2022-12-29T01:55:37.188Z,98697.34
2022-12-29T02:00:38.963Z,98695.41
2022-12-29T02:05:54.711Z,98701.47
2022-12-29T02:11:01.864Z,98688.38
2022-12-29T02:16:33.624Z,98682.38
2022-12-29T02:21:38.925Z,98675.19
2022-12-29T02:26:52.710Z,98668.41
2022-12-29T02:32:02.318Z,98661.50
2022-12-29T02:37:24.238Z,98666.69
2022-12-29T02:42:44.808Z,98650.03
2022-12-29T02:48:02.574Z,98658.16
2022-12-29T02:53:13.906Z,98658.13
2022-12-29T02:58:23.055Z,98658.06
2022-12-29T03:03:33.561Z,98647.63
2022-12-29T03:08:57.687Z,98654.88
2022-12-29T03:14:33.146Z,98647.78
2022-12-29T03:19:48.806Z,98653.94
2022-12-29T03:24:53.704Z,98647.00
2022-12-29T03:30:02.491Z,98642.59
2022-12-29T03:35:06.641Z,98641.00
2022-12-29T03:40:10.244Z,98634.09
2022-12-29T03:45:12.298Z,98632.34
2022-12-29T03:50:14.597Z,98621.19
2022-12-29T03:55:16.428Z,98626.28
2022-12-29T04:00:18.385Z,98627.94
2022-12-29T04:05:20.293Z,98634.09
2022-12-29T04:10:21.933Z,98621.91
2022-12-29T04:15:25.281Z,98629.91
2022-12-29T04:20:45.476Z,98636.81
2022-12-29T04:25:50.464Z,98644.72
2022-12-29T04:30:52.572Z,98647.34
2022-12-29T04:35:55.476Z,98653.22
2022-12-29T04:41:01.075Z,98647.31
2022-12-29T04:46:02.768Z,98647.34
2022-12-29T04:51:04.607Z,98661.31
2022-12-29T04:56:06.549Z,98660.38
2022-12-29T05:01:08.203Z,98653.38
2022-12-29T05:06:09.908Z,98647.41
2022-12-29T05:11:11.577Z,98646.50
2022-12-29T05:16:13.388Z,98644.56
2022-12-29T05:21:15.175Z,98631.88
2022-12-29T05:26:16.871Z,98639.00
2022-12-29T05:31:18.593Z,98635.22
2022-12-29T05:36:20.849Z,98633.59
2022-12-29T05:41:22.787Z,98624.88
2022-12-29T05:46:24.512Z,98637.16
2022-12-29T05:51:26.313Z,98629.16
2022-12-29T05:56:27.952Z,98637.81
2022-12-29T06:01:29.593Z,98650.91
2022-12-29T06:06:31.419Z,98652.56
2022-12-29T06:11:33.284Z,98670.84
2022-12-29T06:16:35.156Z,98676.22
2022-12-29T06:21:36.931Z,98670.03
2022-12-29T06:26:38.710Z,98673.75
2022-12-29T06:31:40.453Z,98684.91
2022-12-29T06:36:42.232Z,98695.56
2022-12-29T06:41:43.919Z,98694.56
2022-12-29T06:46:45.542Z,98692.06
2022-12-29T06:51:47.624Z,98688.59
2022-12-29T06:56:49.295Z,98690.34
2022-12-29T07:01:53.038Z,98698.19
2022-12-29T07:06:56.256Z,98710.34
2022-12-29T07:11:58.355Z,98698.09
2022-12-29T07:17:00.017Z,98692.81
2022-12-29T07:22:02.334Z,98695.53
2022-12-29T07:27:04.342Z,98706.69
2022-12-29T07:38:31.549Z,98715.50
2022-12-29T07:43:33.370Z,98717.09
2022-12-29T07:48:37.088Z,98712.66
2022-12-29T07:53:38.780Z,98712.72
2022-12-29T07:58:40.360Z,98710.91
2022-12-29T08:03:42.664Z,98703.88
2022-12-29T08:08:45.631Z,98711.50
2022-12-29T08:13:47.292Z,98724.56
2022-12-29T08:18:49.025Z,98728.00
2022-12-29T08:23:50.751Z,98722.75
2022-12-29T08:28:56.825Z,98707.81
2022-12-29T08:33:58.549Z,98706.94
2022-12-29T08:39:00.288Z,98706.84
2022-12-29T08:44:02.007Z,98706.75
2022-12-29T08:49:03.762Z,98721.66
2022-12-29T08:54:05.506Z,98709.38
2022-12-29T08:59:07.097Z,98697.97
2022-12-29T09:04:17.618Z,98697.91
2022-12-29T09:09:20.599Z,98688.34
2022-12-29T09:14:22.642Z,98681.25
2022-12-29T09:19:24.324Z,98692.47
2022-12-29T09:24:27.098Z,98680.22
2022-12-29T09:29:28.837Z,98675.78
2022-12-29T09:34:30.552Z,98681.66
2022-12-29T09:39:32.318Z,98681.53
2022-12-29T09:45:06.449Z,98679.72
2022-12-29T09:50:15.756Z,98671.84
2022-12-29T09:55:23.089Z,98654.97
2022-12-29T10:00:39.824Z,98652.28
2022-12-29T10:05:44.540Z,98658.31
2022-12-29T10:11:12.586Z,98653.97
2022-12-29T10:16:40.077Z,98645.06
2022-12-29T10:22:07.996Z,98651.84
2022-12-29T10:27:14.319Z,98634.19
2022-12-29T10:32:22.749Z,98628.56
2022-12-29T10:37:44.231Z,98644.56
2022-12-29T10:42:52.016Z,98630.13
2022-12-29T10:48:04.321Z,98627.16
2022-12-29T10:53:09.466Z,98621.66
2022-12-29T10:58:15.769Z,98615.16
2022-12-29T11:03:41.169Z,98610.06
2022-12-29T11:08:53.968Z,98604.31
2022-12-29T11:14:03.669Z,98595.88
2022-12-29T11:19:05.913Z,98583.97
2022-12-29T11:24:22.013Z,98584.44
2022-12-29T11:29:27.842Z,98571.94
2022-12-29T11:34:35.261Z,98568.38
2022-12-29T11:39:55.482Z,98566.09
2022-12-29T11:44:57.303Z,98560.34
2022-12-29T11:50:02.679Z,98553.38
2022-12-29T11:55:08.515Z,98549.94
2022-12-29T12:00:17.457Z,98551.63
2022-12-29T12:05:22.469Z,98554.69
2022-12-29T12:10:39.702Z,98546.16
2022-12-29T12:15:48.274Z,98542.50
2022-12-29T12:20:59.824Z,98535.81
2022-12-29T12:26:12.964Z,98539.97
2022-12-29T12:31:39.907Z,98527.97
2022-12-29T12:36:44.226Z,98520.75
2022-12-29T12:42:41.525Z,98521.25
2022-12-29T12:47:52.917Z,98518.16
2022-12-29T12:53:25.141Z,98520.59
2022-12-29T12:58:51.118Z,98513.69
2022-12-29T13:04:01.999Z,98513.63
2022-12-29T13:09:48.958Z,98516.75
2022-12-29T13:14:58.990Z,98517.47
2022-12-29T13:20:18.976Z,98524.00
2022-12-29T13:25:59.431Z,98522.91
2022-12-29T13:31:12.178Z,98513.31
2022-12-29T13:36:13.845Z,98511.38
2022-12-29T13:41:22.765Z,98514.13
2022-12-29T13:46:41.854Z,98516.47
2022-12-29T13:51:53.095Z,98503.53
2022-12-29T13:57:08.338Z,98508.78
2022-12-29T14:02:18.968Z,98506.28
2022-12-29T14:07:20.829Z,98509.94
2022-12-29T14:12:31.563Z,98510.03
2022-12-29T14:17:33.534Z,98516.41
2022-12-29T14:22:35.463Z,98513.50
2022-12-29T14:27:54.600Z,98502.72
2022-12-29T14:33:14.164Z,98506.19
2022-12-29T14:38:24.991Z,98509.63
2022-12-29T14:43:28.268Z,98517.09
2022-12-29T14:48:44.044Z,98509.94
2022-12-29T14:53:52.201Z,98523.16
2022-12-29T14:59:00.165Z,98527.91
2022-12-29T15:04:15.639Z,98517.97
2022-12-29T15:09:28.835Z,98529.88
2022-12-29T15:14:50.139Z,98519.06
2022-12-29T15:19:51.964Z,98522.28
2022-12-29T15:24:55.340Z,98533.84
2022-12-29T15:30:03.211Z,98543.25
2022-12-29T15:35:36.880Z,98533.97
2022-12-29T15:40:38.735Z,98540.09
2022-12-29T15:45:40.567Z,98543.69
2022-12-29T15:50:44.279Z,98545.44
2022-12-29T15:55:48.679Z,98542.06
2022-12-29T16:01:02.268Z,98550.03
2022-12-29T16:06:11.779Z,98548.09
2022-12-29T16:11:24.858Z,98555.78
2022-12-29T16:16:36.421Z,98555.28
2022-12-29T16:21:38.340Z,98552.13
2022-12-29T16:26:40.775Z,98558.41
2022-12-29T16:32:01.559Z,98552.47
2022-12-29T16:37:05.800Z,98550.94
2022-12-29T16:42:37.451Z,98558.38
2022-12-29T16:47:39.334Z,98565.88
2022-12-29T16:52:40.977Z,98554.53
2022-12-29T16:57:44.882Z,98545.91
2022-12-29T17:02:47.951Z,98547.00
2022-12-29T17:07:50.111Z,98544.44
2022-12-29T17:12:51.758Z,98539.81
2022-12-29T17:17:56.967Z,98531.44
2022-12-29T17:23:00.362Z,98533.31
2022-12-29T17:28:28.129Z,98536.88
2022-12-29T17:33:36.425Z,98537.88
2022-12-29T17:38:38.411Z,98555.34
2022-12-29T17:43:40.742Z,98550.97
2022-12-29T17:48:43.856Z,98546.66
2022-12-29T17:53:47.439Z,98544.09
2022-12-29T17:58:49.354Z,98546.94
2022-12-29T18:03:51.168Z,98555.78
2022-12-29T18:08:52.981Z,98557.72
2022-12-29T18:13:54.714Z,98551.59
2022-12-29T18:18:56.435Z,98559.63
2022-12-29T18:23:58.155Z,98563.38
2022-12-29T18:28:59.945Z,98552.84
2022-12-29T18:34:07.654Z,98570.41
2022-12-29T18:39:09.445Z,98563.41
2022-12-29T18:44:14.293Z,98559.94
2022-12-29T18:49:16.356Z,98567.84
2022-12-29T18:54:31.883Z,98568.78
2022-12-29T18:59:33.803Z,98567.16
2022-12-29T19:04:35.603Z,98562.03
2022-12-29T19:09:37.291Z,98569.91
2022-12-29T19:14:39.332Z,98566.47
2022-12-29T19:19:43.205Z,98561.97
2022-12-29T19:24:44.991Z,98542.09
2022-12-29T19:29:47.020Z,98543.19
2022-12-29T19:34:49.138Z,98538.63
2022-12-29T19:39:51.007Z,98543.94
2022-12-29T19:44:52.633Z,98525.59
2022-12-29T19:49:54.777Z,98529.09
2022-12-29T19:54:56.651Z,98517.88
2022-12-29T19:59:58.737Z,98519.53
2022-12-29T20:05:01.255Z,98518.75
2022-12-29T20:10:04.999Z,98529.28
2022-12-29T20:15:09.021Z,98529.28
2022-12-29T20:20:10.985Z,98531.78
2022-12-29T20:25:43.597Z,98523.03
2022-12-29T20:30:34.602Z,98523.03
2022-12-29T20:35:37.324Z,98521.25
2022-12-29T20:40:44.398Z,98521.34
2022-12-29T20:45:49.193Z,98521.34
2022-12-29T20:50:50.974Z,98510.97
2022-12-29T20:56:00.320Z,98511.84
2022-12-29T21:01:05.451Z,98510.13
2022-12-29T21:06:07.854Z,98509.50
2022-12-29T21:11:10.191Z,98515.56
2022-12-29T21:16:13.578Z,98518.22
2022-12-29T21:21:21.059Z,98531.41
2022-12-29T21:26:24.658Z,98539.16
2022-12-29T21:31:27.775Z,98521.84
2022-12-29T21:36:30.255Z,98518.50
2022-12-29T21:41:32.555Z,98513.31
2022-12-29T21:46:36.860Z,98497.59
2022-12-29T21:51:50.438Z,98508.06
2022-12-29T21:56:52.070Z,98509.28
2022-12-29T22:02:12.073Z,98501.16
2022-12-29T22:07:32.620Z,98508.31
2022-12-29T22:12:53.173Z,98504.66
2022-12-29T22:17:55.489Z,98511.91
2022-12-29T22:22:57.691Z,98495.94
2022-12-29T22:27:59.892Z,98509.06
2022-12-29T22:33:02.171Z,98497.75
2022-12-29T22:38:03.962Z,98482.94
2022-12-29T22:43:12.742Z,98493.34
2022-12-29T22:48:14.790Z,98477.78
2022-12-29T22:53:16.498Z,98488.31
2022-12-29T22:58:18.138Z,98479.63
2022-12-29T23:03:19.910Z,98463.81
2022-12-29T23:08:21.755Z,98471.72
2022-12-29T23:13:23.456Z,98471.94
2022-12-29T23:18:25.939Z,98453.09
2022-12-29T23:23:49.238Z,98437.09
2022-12-29T23:28:56.220Z,98435.34
2022-12-29T23:34:02.823Z,98450.25
2022-12-29T23:39:05.742Z,98456.38
2022-12-29T23:44:07.526Z,98445.13
2022-12-29T23:49:10.127Z,98432.34
2022-12-29T23:54:11.741Z,98434.91
2022-12-29T23:59:13.383Z,98423.31
